sensor_id;sensor_type;location;lat;lon;timestamp;P1;durP1;ratioP1;P2;durP2;ratioP2
31746;SDS011;18319;48.974;8.462;2022-07-30T00:00:08;2.72;;;1.92;;
31746;SDS011;18319;48.974;8.462;2022-07-30T00:02:36;3.13;;;1.83;;
31746;SDS011;18319;48.974;8.462;2022-07-30T00:05:03;3.42;;;2.15;;
31746;SDS011;18319;48.974;8.462;2022-07-30T00:07:32;2.20;;;1.65;;
31746;SDS011;18319;48.974;8.462;2022-07-30T00:09:59;2.20;;;2.10;;
31746;SDS011;18319;48.974;8.462;2022-07-30T00:12:26;2.10;;;2.00;;
31746;SDS011;18319;48.974;8.462;2022-07-30T00:14:53;3.53;;;2.00;;
31746;SDS011;18319;48.974;8.462;2022-07-30T00:17:20;3.22;;;2.30;;
31746;SDS011;18319;48.974;8.462;2022-07-30T00:19:47;2.20;;;2.10;;
31746;SDS011;18319;48.974;8.462;2022-07-30T00:22:14;2.60;;;2.40;;
31746;SDS011;18319;48.974;8.462;2022-07-30T00:24:42;2.35;;;2.20;;
31746;SDS011;18319;48.974;8.462;2022-07-30T00:27:09;2.50;;;2.03;;
31746;SDS011;18319;48.974;8.462;2022-07-30T00:29:38;2.55;;;2.20;;
31746;SDS011;18319;48.974;8.462;2022-07-30T00:32:05;2.25;;;2.08;;
31746;SDS011;18319;48.974;8.462;2022-07-30T00:34:32;2.30;;;2.20;;
31746;SDS011;18319;48.974;8.462;2022-07-30T00:36:59;2.65;;;2.47;;
31746;SDS011;18319;48.974;8.462;2022-07-30T00:39:25;2.90;;;2.20;;
31746;SDS011;18319;48.974;8.462;2022-07-30T00:41:56;3.35;;;2.30;;
31746;SDS011;18319;48.974;8.462;2022-07-30T00:44:24;2.92;;;2.58;;
31746;SDS011;18319;48.974;8.462;2022-07-30T00:46:51;2.65;;;2.45;;
31746;SDS011;18319;48.974;8.462;2022-07-30T00:49:18;2.45;;;2.03;;
31746;SDS011;18319;48.974;8.462;2022-07-30T00:51:45;2.53;;;2.42;;
31746;SDS011;18319;48.974;8.462;2022-07-30T00:54:12;2.60;;;2.40;;
31746;SDS011;18319;48.974;8.462;2022-07-30T00:56:40;3.20;;;2.90;;
31746;SDS011;18319;48.974;8.462;2022-07-30T00:59:12;2.83;;;2.63;;
31746;SDS011;18319;48.974;8.462;2022-07-30T01:01:39;2.80;;;2.60;;
31746;SDS011;18319;48.974;8.462;2022-07-30T01:04:06;4.00;;;2.92;;
31746;SDS011;18319;48.974;8.462;2022-07-30T01:06:35;2.55;;;2.45;;
31746;SDS011;18319;48.974;8.462;2022-07-30T01:09:02;7.63;;;3.10;;
31746;SDS011;18319;48.974;8.462;2022-07-30T01:11:30;3.83;;;2.90;;
31746;SDS011;18319;48.974;8.462;2022-07-30T01:14:02;3.15;;;2.85;;
31746;SDS011;18319;48.974;8.462;2022-07-30T01:16:31;3.05;;;2.85;;
31746;SDS011;18319;48.974;8.462;2022-07-30T01:18:58;4.35;;;2.70;;
31746;SDS011;18319;48.974;8.462;2022-07-30T01:21:47;2.50;;;2.38;;
31746;SDS011;18319;48.974;8.462;2022-07-30T01:24:19;3.22;;;3.03;;
31746;SDS011;18319;48.974;8.462;2022-07-30T01:26:53;3.72;;;3.33;;
31746;SDS011;18319;48.974;8.462;2022-07-30T01:29:21;4.45;;;2.95;;
31746;SDS011;18319;48.974;8.462;2022-07-30T01:31:50;3.83;;;3.50;;
31746;SDS011;18319;48.974;8.462;2022-07-30T01:34:20;3.53;;;3.22;;
31746;SDS011;18319;48.974;8.462;2022-07-30T01:36:49;3.65;;;3.35;;
31746;SDS011;18319;48.974;8.462;2022-07-30T01:39:17;3.20;;;3.00;;
31746;SDS011;18319;48.974;8.462;2022-07-30T01:41:45;3.10;;;2.90;;
31746;SDS011;18319;48.974;8.462;2022-07-30T01:44:18;3.20;;;3.00;;
31746;SDS011;18319;48.974;8.462;2022-07-30T01:46:46;7.07;;;2.95;;
31746;SDS011;18319;48.974;8.462;2022-07-30T01:49:13;3.30;;;2.90;;
31746;SDS011;18319;48.974;8.462;2022-07-30T01:51:42;4.20;;;3.35;;
31746;SDS011;18319;48.974;8.462;2022-07-30T01:54:11;5.75;;;2.80;;
31746;SDS011;18319;48.974;8.462;2022-07-30T01:56:39;3.83;;;3.28;;
31746;SDS011;18319;48.974;8.462;2022-07-30T01:59:10;4.55;;;3.38;;
31746;SDS011;18319;48.974;8.462;2022-07-30T02:01:40;4.22;;;3.70;;
31746;SDS011;18319;48.974;8.462;2022-07-30T02:04:07;6.13;;;3.47;;
31746;SDS011;18319;48.974;8.462;2022-07-30T02:06:36;4.40;;;3.50;;
31746;SDS011;18319;48.974;8.462;2022-07-30T02:09:06;3.00;;;2.70;;
31746;SDS011;18319;48.974;8.462;2022-07-30T02:11:35;3.05;;;2.75;;
31746;SDS011;18319;48.974;8.462;2022-07-30T02:14:25;3.50;;;3.13;;
31746;SDS011;18319;48.974;8.462;2022-07-30T02:16:57;5.32;;;3.38;;
31746;SDS011;18319;48.974;8.462;2022-07-30T02:19:28;3.95;;;2.97;;
31746;SDS011;18319;48.974;8.462;2022-07-30T02:21:59;3.28;;;2.97;;
31746;SDS011;18319;48.974;8.462;2022-07-30T02:24:30;4.03;;;2.85;;
31746;SDS011;18319;48.974;8.462;2022-07-30T02:26:59;2.95;;;2.75;;
31746;SDS011;18319;48.974;8.462;2022-07-30T02:29:28;5.93;;;2.88;;
31746;SDS011;18319;48.974;8.462;2022-07-30T02:31:59;3.72;;;3.38;;
31746;SDS011;18319;48.974;8.462;2022-07-30T02:34:30;3.00;;;2.80;;
31746;SDS011;18319;48.974;8.462;2022-07-30T02:36:59;3.40;;;2.88;;
31746;SDS011;18319;48.974;8.462;2022-07-30T02:39:27;3.75;;;3.13;;
31746;SDS011;18319;48.974;8.462;2022-07-30T02:41:56;3.42;;;3.20;;
31746;SDS011;18319;48.974;8.462;2022-07-30T02:44:24;3.78;;;3.53;;
31746;SDS011;18319;48.974;8.462;2022-07-30T02:46:54;4.13;;;3.40;;
31746;SDS011;18319;48.974;8.462;2022-07-30T02:49:23;3.22;;;3.03;;
31746;SDS011;18319;48.974;8.462;2022-07-30T02:51:55;4.10;;;3.70;;
31746;SDS011;18319;48.974;8.462;2022-07-30T02:54:23;3.38;;;2.80;;
31746;SDS011;18319;48.974;8.462;2022-07-30T02:56:52;5.25;;;3.30;;
31746;SDS011;18319;48.974;8.462;2022-07-30T02:59:19;3.17;;;2.97;;
31746;SDS011;18319;48.974;8.462;2022-07-30T03:01:48;3.10;;;2.90;;
31746;SDS011;18319;48.974;8.462;2022-07-30T03:04:18;3.30;;;2.92;;
31746;SDS011;18319;48.974;8.462;2022-07-30T03:06:48;3.22;;;2.92;;
31746;SDS011;18319;48.974;8.462;2022-07-30T03:09:16;4.80;;;2.90;;
31746;SDS011;18319;48.974;8.462;2022-07-30T03:11:43;3.97;;;2.85;;
31746;SDS011;18319;48.974;8.462;2022-07-30T03:14:11;5.22;;;2.70;;
31746;SDS011;18319;48.974;8.462;2022-07-30T03:16:38;3.65;;;3.25;;
31746;SDS011;18319;48.974;8.462;2022-07-30T03:19:08;8.25;;;2.72;;
31746;SDS011;18319;48.974;8.462;2022-07-30T03:21:37;2.83;;;2.63;;
31746;SDS011;18319;48.974;8.462;2022-07-30T03:24:09;4.68;;;3.15;;
31746;SDS011;18319;48.974;8.462;2022-07-30T03:26:38;3.97;;;2.83;;
31746;SDS011;18319;48.974;8.462;2022-07-30T03:29:07;2.78;;;2.58;;
31746;SDS011;18319;48.974;8.462;2022-07-30T03:31:34;3.53;;;3.22;;
31746;SDS011;18319;48.974;8.462;2022-07-30T03:34:01;6.25;;;3.05;;
31746;SDS011;18319;48.974;8.462;2022-07-30T03:36:28;2.72;;;2.63;;
31746;SDS011;18319;48.974;8.462;2022-07-30T03:38:56;3.97;;;2.53;;
31746;SDS011;18319;48.974;8.462;2022-07-30T03:41:24;4.90;;;2.50;;
31746;SDS011;18319;48.974;8.462;2022-07-30T03:43:51;3.13;;;2.92;;
31746;SDS011;18319;48.974;8.462;2022-07-30T03:46:20;4.70;;;3.60;;
31746;SDS011;18319;48.974;8.462;2022-07-30T03:48:47;3.53;;;3.22;;
31746;SDS011;18319;48.974;8.462;2022-07-30T03:51:14;3.80;;;3.55;;
31746;SDS011;18319;48.974;8.462;2022-07-30T03:53:42;3.05;;;2.55;;
31746;SDS011;18319;48.974;8.462;2022-07-30T03:56:10;3.53;;;3.20;;
31746;SDS011;18319;48.974;8.462;2022-07-30T03:58:40;5.25;;;3.60;;
31746;SDS011;18319;48.974;8.462;2022-07-30T04:01:07;3.55;;;3.15;;
31746;SDS011;18319;48.974;8.462;2022-07-30T04:03:34;3.92;;;2.92;;
31746;SDS011;18319;48.974;8.462;2022-07-30T04:06:00;3.85;;;3.38;;
31746;SDS011;18319;48.974;8.462;2022-07-30T04:08:27;3.15;;;2.95;;
31746;SDS011;18319;48.974;8.462;2022-07-30T04:10:54;3.33;;;3.10;;
31746;SDS011;18319;48.974;8.462;2022-07-30T04:13:21;4.53;;;3.22;;
31746;SDS011;18319;48.974;8.462;2022-07-30T04:15:50;3.17;;;2.88;;
31746;SDS011;18319;48.974;8.462;2022-07-30T04:18:23;3.15;;;3.00;;
31746;SDS011;18319;48.974;8.462;2022-07-30T04:20:55;3.10;;;2.90;;
31746;SDS011;18319;48.974;8.462;2022-07-30T04:23:24;4.68;;;3.10;;
31746;SDS011;18319;48.974;8.462;2022-07-30T04:25:51;3.40;;;3.20;;
31746;SDS011;18319;48.974;8.462;2022-07-30T04:28:19;5.03;;;2.72;;
31746;SDS011;18319;48.974;8.462;2022-07-30T04:30:46;4.35;;;3.13;;
31746;SDS011;18319;48.974;8.462;2022-07-30T04:33:14;3.72;;;2.85;;
31746;SDS011;18319;48.974;8.462;2022-07-30T04:35:41;3.33;;;3.03;;
31746;SDS011;18319;48.974;8.462;2022-07-30T04:38:08;4.70;;;3.28;;
31746;SDS011;18319;48.974;8.462;2022-07-30T04:40:36;4.63;;;2.92;;
31746;SDS011;18319;48.974;8.462;2022-07-30T04:43:03;3.63;;;3.20;;
31746;SDS011;18319;48.974;8.462;2022-07-30T04:45:30;3.25;;;3.03;;
31746;SDS011;18319;48.974;8.462;2022-07-30T04:47:57;2.83;;;2.67;;
31746;SDS011;18319;48.974;8.462;2022-07-30T04:50:26;5.55;;;2.90;;
31746;SDS011;18319;48.974;8.462;2022-07-30T04:52:54;2.67;;;2.47;;
31746;SDS011;18319;48.974;8.462;2022-07-30T04:55:22;3.70;;;3.35;;
31746;SDS011;18319;48.974;8.462;2022-07-30T04:57:50;5.38;;;3.05;;
31746;SDS011;18319;48.974;8.462;2022-07-30T05:00:18;3.55;;;3.15;;
31746;SDS011;18319;48.974;8.462;2022-07-30T05:02:46;3.45;;;2.97;;
31746;SDS011;18319;48.974;8.462;2022-07-30T05:05:15;3.45;;;3.17;;
31746;SDS011;18319;48.974;8.462;2022-07-30T05:07:44;3.35;;;2.70;;
31746;SDS011;18319;48.974;8.462;2022-07-30T05:10:11;3.33;;;3.05;;
31746;SDS011;18319;48.974;8.462;2022-07-30T05:12:38;3.00;;;2.75;;
31746;SDS011;18319;48.974;8.462;2022-07-30T05:15:06;2.45;;;2.33;;
31746;SDS011;18319;48.974;8.462;2022-07-30T05:17:34;3.03;;;2.78;;
31746;SDS011;18319;48.974;8.462;2022-07-30T05:20:02;2.92;;;2.80;;
31746;SDS011;18319;48.974;8.462;2022-07-30T05:22:29;3.08;;;2.88;;
31746;SDS011;18319;48.974;8.462;2022-07-30T05:24:58;3.53;;;3.22;;
31746;SDS011;18319;48.974;8.462;2022-07-30T05:27:25;3.22;;;2.83;;
31746;SDS011;18319;48.974;8.462;2022-07-30T05:29:52;3.67;;;2.88;;
31746;SDS011;18319;48.974;8.462;2022-07-30T05:32:19;3.38;;;2.70;;
31746;SDS011;18319;48.974;8.462;2022-07-30T05:34:46;5.72;;;3.63;;
31746;SDS011;18319;48.974;8.462;2022-07-30T05:37:13;5.82;;;3.40;;
31746;SDS011;18319;48.974;8.462;2022-07-30T05:39:40;3.28;;;2.65;;
31746;SDS011;18319;48.974;8.462;2022-07-30T05:42:08;4.90;;;2.75;;
31746;SDS011;18319;48.974;8.462;2022-07-30T05:44:35;3.85;;;2.75;;
31746;SDS011;18319;48.974;8.462;2022-07-30T05:47:01;4.13;;;3.05;;
31746;SDS011;18319;48.974;8.462;2022-07-30T05:49:28;3.08;;;2.83;;
31746;SDS011;18319;48.974;8.462;2022-07-30T05:51:55;2.83;;;2.63;;
31746;SDS011;18319;48.974;8.462;2022-07-30T05:54:22;6.20;;;3.10;;
31746;SDS011;18319;48.974;8.462;2022-07-30T05:56:49;4.07;;;2.63;;
31746;SDS011;18319;48.974;8.462;2022-07-30T05:59:17;2.67;;;2.58;;
31746;SDS011;18319;48.974;8.462;2022-07-30T06:01:44;3.28;;;3.08;;
31746;SDS011;18319;48.974;8.462;2022-07-30T06:04:11;3.58;;;3.22;;
31746;SDS011;18319;48.974;8.462;2022-07-30T06:06:38;3.63;;;2.92;;
31746;SDS011;18319;48.974;8.462;2022-07-30T06:09:05;3.50;;;3.20;;
31746;SDS011;18319;48.974;8.462;2022-07-30T06:11:31;3.25;;;3.05;;
31746;SDS011;18319;48.974;8.462;2022-07-30T06:13:58;3.13;;;2.92;;
31746;SDS011;18319;48.974;8.462;2022-07-30T06:16:26;3.50;;;2.78;;
31746;SDS011;18319;48.974;8.462;2022-07-30T06:18:53;3.28;;;3.05;;
31746;SDS011;18319;48.974;8.462;2022-07-30T06:21:20;3.13;;;2.72;;
31746;SDS011;18319;48.974;8.462;2022-07-30T06:23:47;3.00;;;2.80;;
31746;SDS011;18319;48.974;8.462;2022-07-30T06:26:14;3.40;;;3.10;;
31746;SDS011;18319;48.974;8.462;2022-07-30T06:28:40;2.80;;;2.65;;
31746;SDS011;18319;48.974;8.462;2022-07-30T06:31:07;3.33;;;2.83;;
31746;SDS011;18319;48.974;8.462;2022-07-30T06:33:35;4.38;;;3.70;;
31746;SDS011;18319;48.974;8.462;2022-07-30T06:36:02;2.70;;;2.45;;
31746;SDS011;18319;48.974;8.462;2022-07-30T06:38:29;3.33;;;3.08;;
31746;SDS011;18319;48.974;8.462;2022-07-30T06:40:56;4.10;;;2.63;;
31746;SDS011;18319;48.974;8.462;2022-07-30T06:43:26;3.17;;;2.90;;
31746;SDS011;18319;48.974;8.462;2022-07-30T06:45:52;4.50;;;2.80;;
31746;SDS011;18319;48.974;8.462;2022-07-30T06:48:19;3.67;;;3.10;;
31746;SDS011;18319;48.974;8.462;2022-07-30T06:50:48;5.28;;;4.03;;
31746;SDS011;18319;48.974;8.462;2022-07-30T06:53:14;3.00;;;2.65;;
31746;SDS011;18319;48.974;8.462;2022-07-30T06:55:41;2.70;;;2.50;;
31746;SDS011;18319;48.974;8.462;2022-07-30T06:58:08;3.60;;;3.33;;
31746;SDS011;18319;48.974;8.462;2022-07-30T07:00:35;4.68;;;2.92;;
31746;SDS011;18319;48.974;8.462;2022-07-30T07:03:01;4.78;;;3.03;;
31746;SDS011;18319;48.974;8.462;2022-07-30T07:05:28;4.03;;;2.63;;
31746;SDS011;18319;48.974;8.462;2022-07-30T07:07:56;3.35;;;3.05;;
31746;SDS011;18319;48.974;8.462;2022-07-30T07:10:23;3.08;;;2.88;;
31746;SDS011;18319;48.974;8.462;2022-07-30T07:12:50;3.97;;;3.03;;
31746;SDS011;18319;48.974;8.462;2022-07-30T07:15:17;2.92;;;2.60;;
31746;SDS011;18319;48.974;8.462;2022-07-30T07:17:44;5.05;;;3.10;;
31746;SDS011;18319;48.974;8.462;2022-07-30T07:20:11;3.03;;;2.85;;
31746;SDS011;18319;48.974;8.462;2022-07-30T07:22:38;4.88;;;3.42;;
31746;SDS011;18319;48.974;8.462;2022-07-30T07:25:07;3.38;;;2.35;;
31746;SDS011;18319;48.974;8.462;2022-07-30T07:27:36;3.15;;;2.85;;
31746;SDS011;18319;48.974;8.462;2022-07-30T07:30:05;3.03;;;2.83;;
31746;SDS011;18319;48.974;8.462;2022-07-30T07:32:33;4.30;;;3.30;;
31746;SDS011;18319;48.974;8.462;2022-07-30T07:35:00;5.18;;;3.22;;
31746;SDS011;18319;48.974;8.462;2022-07-30T07:37:27;5.50;;;3.88;;
31746;SDS011;18319;48.974;8.462;2022-07-30T07:39:55;4.90;;;3.83;;
31746;SDS011;18319;48.974;8.462;2022-07-30T07:42:24;4.28;;;3.45;;
31746;SDS011;18319;48.974;8.462;2022-07-30T07:44:51;3.00;;;2.80;;
31746;SDS011;18319;48.974;8.462;2022-07-30T07:47:18;3.13;;;2.83;;
31746;SDS011;18319;48.974;8.462;2022-07-30T07:49:45;3.72;;;2.60;;
31746;SDS011;18319;48.974;8.462;2022-07-30T07:52:12;5.10;;;2.63;;
31746;SDS011;18319;48.974;8.462;2022-07-30T07:54:38;2.80;;;2.60;;
31746;SDS011;18319;48.974;8.462;2022-07-30T07:57:05;3.20;;;2.88;;
31746;SDS011;18319;48.974;8.462;2022-07-30T07:59:34;2.80;;;2.58;;
31746;SDS011;18319;48.974;8.462;2022-07-30T08:02:06;3.28;;;2.80;;
31746;SDS011;18319;48.974;8.462;2022-07-30T08:04:33;3.20;;;3.00;;
31746;SDS011;18319;48.974;8.462;2022-07-30T08:07:00;6.13;;;2.78;;
31746;SDS011;18319;48.974;8.462;2022-07-30T08:09:26;3.20;;;2.78;;
31746;SDS011;18319;48.974;8.462;2022-07-30T08:11:53;2.80;;;2.60;;
31746;SDS011;18319;48.974;8.462;2022-07-30T08:14:20;3.60;;;2.95;;
31746;SDS011;18319;48.974;8.462;2022-07-30T08:16:48;3.10;;;2.42;;
31746;SDS011;18319;48.974;8.462;2022-07-30T08:19:15;3.03;;;2.47;;
31746;SDS011;18319;48.974;8.462;2022-07-30T08:21:42;3.47;;;2.80;;
31746;SDS011;18319;48.974;8.462;2022-07-30T08:24:08;2.95;;;2.75;;
31746;SDS011;18319;48.974;8.462;2022-07-30T08:26:35;6.85;;;2.42;;
31746;SDS011;18319;48.974;8.462;2022-07-30T08:29:02;4.75;;;2.53;;
31746;SDS011;18319;48.974;8.462;2022-07-30T08:31:29;2.30;;;2.10;;
31746;SDS011;18319;48.974;8.462;2022-07-30T08:33:58;4.00;;;1.83;;
31746;SDS011;18319;48.974;8.462;2022-07-30T08:36:24;5.15;;;2.63;;
31746;SDS011;18319;48.974;8.462;2022-07-30T08:38:51;2.28;;;1.60;;
31746;SDS011;18319;48.974;8.462;2022-07-30T08:41:18;2.13;;;1.90;;
31746;SDS011;18319;48.974;8.462;2022-07-30T08:43:46;2.05;;;1.92;;
31746;SDS011;18319;48.974;8.462;2022-07-30T08:46:14;3.00;;;2.05;;
31746;SDS011;18319;48.974;8.462;2022-07-30T08:48:43;3.80;;;1.67;;
31746;SDS011;18319;48.974;8.462;2022-07-30T08:51:13;1.88;;;1.70;;
31746;SDS011;18319;48.974;8.462;2022-07-30T08:53:42;2.55;;;2.00;;
31746;SDS011;18319;48.974;8.462;2022-07-30T08:56:09;3.25;;;1.77;;
31746;SDS011;18319;48.974;8.462;2022-07-30T08:58:36;1.50;;;1.38;;
31746;SDS011;18319;48.974;8.462;2022-07-30T09:01:04;3.60;;;1.52;;
31746;SDS011;18319;48.974;8.462;2022-07-30T09:03:31;1.63;;;1.33;;
31746;SDS011;18319;48.974;8.462;2022-07-30T09:05:59;2.15;;;1.40;;
31746;SDS011;18319;48.974;8.462;2022-07-30T09:08:29;2.28;;;1.38;;
31746;SDS011;18319;48.974;8.462;2022-07-30T09:10:59;2.08;;;1.50;;
31746;SDS011;18319;48.974;8.462;2022-07-30T09:13:26;3.47;;;1.60;;
31746;SDS011;18319;48.974;8.462;2022-07-30T09:15:55;2.53;;;1.35;;
31746;SDS011;18319;48.974;8.462;2022-07-30T09:18:25;1.77;;;1.23;;
31746;SDS011;18319;48.974;8.462;2022-07-30T09:20:53;3.03;;;1.83;;
31746;SDS011;18319;48.974;8.462;2022-07-30T09:23:20;2.28;;;1.73;;
31746;SDS011;18319;48.974;8.462;2022-07-30T09:25:49;1.83;;;1.67;;
31746;SDS011;18319;48.974;8.462;2022-07-30T09:28:19;1.90;;;1.60;;
31746;SDS011;18319;48.974;8.462;2022-07-30T09:30:54;2.22;;;1.85;;
31746;SDS011;18319;48.974;8.462;2022-07-30T09:33:32;3.22;;;1.35;;
31746;SDS011;18319;48.974;8.462;2022-07-30T09:36:00;1.55;;;1.45;;
31746;SDS011;18319;48.974;8.462;2022-07-30T09:38:38;2.65;;;1.30;;
31746;SDS011;18319;48.974;8.462;2022-07-30T09:41:09;1.90;;;1.35;;
31746;SDS011;18319;48.974;8.462;2022-07-30T09:43:43;2.45;;;1.40;;
31746;SDS011;18319;48.974;8.462;2022-07-30T09:46:11;2.90;;;1.60;;
31746;SDS011;18319;48.974;8.462;2022-07-30T09:48:38;6.45;;;2.22;;
31746;SDS011;18319;48.974;8.462;2022-07-30T09:51:05;2.25;;;1.48;;
31746;SDS011;18319;48.974;8.462;2022-07-30T09:53:33;2.28;;;2.08;;
31746;SDS011;18319;48.974;8.462;2022-07-30T09:56:00;3.33;;;1.92;;
31746;SDS011;18319;48.974;8.462;2022-07-30T09:58:49;2.05;;;1.52;;
31746;SDS011;18319;48.974;8.462;2022-07-30T10:01:16;2.50;;;2.08;;
31746;SDS011;18319;48.974;8.462;2022-07-30T10:03:43;2.20;;;2.00;;
31746;SDS011;18319;48.974;8.462;2022-07-30T10:06:10;1.52;;;1.27;;
31746;SDS011;18319;48.974;8.462;2022-07-30T10:08:38;1.60;;;1.48;;
31746;SDS011;18319;48.974;8.462;2022-07-30T10:11:08;3.08;;;1.30;;
31746;SDS011;18319;48.974;8.462;2022-07-30T10:13:37;1.63;;;1.52;;
31746;SDS011;18319;48.974;8.462;2022-07-30T10:16:06;1.98;;;1.88;;
31746;SDS011;18319;48.974;8.462;2022-07-30T10:18:33;3.53;;;1.42;;
31746;SDS011;18319;48.974;8.462;2022-07-30T10:21:01;3.38;;;2.42;;
31746;SDS011;18319;48.974;8.462;2022-07-30T10:23:29;1.42;;;1.30;;
31746;SDS011;18319;48.974;8.462;2022-07-30T10:25:57;1.90;;;1.80;;
31746;SDS011;18319;48.974;8.462;2022-07-30T10:28:25;1.77;;;1.65;;
31746;SDS011;18319;48.974;8.462;2022-07-30T10:30:53;1.63;;;1.52;;
31746;SDS011;18319;48.974;8.462;2022-07-30T10:33:24;2.45;;;1.23;;
31746;SDS011;18319;48.974;8.462;2022-07-30T10:35:53;1.90;;;1.80;;
31746;SDS011;18319;48.974;8.462;2022-07-30T10:38:21;2.10;;;1.92;;
31746;SDS011;18319;48.974;8.462;2022-07-30T10:40:53;2.30;;;1.70;;
31746;SDS011;18319;48.974;8.462;2022-07-30T10:43:33;3.10;;;1.90;;
31746;SDS011;18319;48.974;8.462;2022-07-30T10:46:18;2.50;;;2.10;;
31746;SDS011;18319;48.974;8.462;2022-07-30T10:48:55;1.60;;;1.48;;
31746;SDS011;18319;48.974;8.462;2022-07-30T10:51:41;3.60;;;2.08;;
31746;SDS011;18319;48.974;8.462;2022-07-30T10:57:09;3.45;;;1.50;;
31746;SDS011;18319;48.974;8.462;2022-07-30T11:02:37;1.77;;;1.67;;
31746;SDS011;18319;48.974;8.462;2022-07-30T11:05:24;1.90;;;1.80;;
31746;SDS011;18319;48.974;8.462;2022-07-30T11:07:52;2.03;;;1.55;;
31746;SDS011;18319;48.974;8.462;2022-07-30T11:10:36;2.00;;;1.88;;
31746;SDS011;18319;48.974;8.462;2022-07-30T11:13:04;1.20;;;1.20;;
31746;SDS011;18319;48.974;8.462;2022-07-30T11:15:51;1.92;;;1.30;;
31746;SDS011;18319;48.974;8.462;2022-07-30T11:18:22;1.83;;;1.10;;
31746;SDS011;18319;48.974;8.462;2022-07-30T11:23:43;1.38;;;1.10;;
31746;SDS011;18319;48.974;8.462;2022-07-30T11:26:11;1.45;;;1.35;;
31746;SDS011;18319;48.974;8.462;2022-07-30T11:29:31;1.48;;;1.08;;
31746;SDS011;18319;48.974;8.462;2022-07-30T11:32:24;3.03;;;1.15;;
31746;SDS011;18319;48.974;8.462;2022-07-30T11:34:55;1.75;;;1.00;;
31746;SDS011;18319;48.974;8.462;2022-07-30T11:37:58;1.42;;;1.30;;
31746;SDS011;18319;48.974;8.462;2022-07-30T11:40:31;1.25;;;1.15;;
31746;SDS011;18319;48.974;8.462;2022-07-30T11:43:15;2.45;;;1.30;;
31746;SDS011;18319;48.974;8.462;2022-07-30T11:45:43;1.27;;;1.13;;
31746;SDS011;18319;48.974;8.462;2022-07-30T11:48:11;0.93;;;0.93;;
31746;SDS011;18319;48.974;8.462;2022-07-30T11:50:40;2.78;;;1.42;;
31746;SDS011;18319;48.974;8.462;2022-07-30T11:53:12;2.53;;;1.40;;
31746;SDS011;18319;48.974;8.462;2022-07-30T11:55:41;1.30;;;1.10;;
31746;SDS011;18319;48.974;8.462;2022-07-30T11:58:10;0.90;;;0.82;;
31746;SDS011;18319;48.974;8.462;2022-07-30T12:00:47;1.15;;;1.10;;
31746;SDS011;18319;48.974;8.462;2022-07-30T12:03:15;1.25;;;1.15;;
31746;SDS011;18319;48.974;8.462;2022-07-30T12:05:43;1.38;;;1.13;;
31746;SDS011;18319;48.974;8.462;2022-07-30T12:08:12;1.55;;;1.02;;
31746;SDS011;18319;48.974;8.462;2022-07-30T12:10:39;1.70;;;1.00;;
31746;SDS011;18319;48.974;8.462;2022-07-30T12:13:09;1.40;;;1.20;;
31746;SDS011;18319;48.974;8.462;2022-07-30T12:15:38;0.90;;;0.80;;
31746;SDS011;18319;48.974;8.462;2022-07-30T12:18:06;1.48;;;1.38;;
31746;SDS011;18319;48.974;8.462;2022-07-30T12:20:35;2.05;;;1.15;;
31746;SDS011;18319;48.974;8.462;2022-07-30T12:23:08;3.15;;;1.10;;
31746;SDS011;18319;48.974;8.462;2022-07-30T12:25:37;1.83;;;1.08;;
31746;SDS011;18319;48.974;8.462;2022-07-30T12:28:04;1.08;;;0.90;;
31746;SDS011;18319;48.974;8.462;2022-07-30T12:30:31;1.85;;;0.93;;
31746;SDS011;18319;48.974;8.462;2022-07-30T12:32:59;2.03;;;1.02;;
31746;SDS011;18319;48.974;8.462;2022-07-30T12:35:40;1.95;;;1.40;;
31746;SDS011;18319;48.974;8.462;2022-07-30T12:38:08;1.63;;;1.08;;
31746;SDS011;18319;48.974;8.462;2022-07-30T12:43:41;1.35;;;1.00;;
31746;SDS011;18319;48.974;8.462;2022-07-30T12:46:13;2.60;;;1.55;;
31746;SDS011;18319;48.974;8.462;2022-07-30T12:48:51;1.80;;;0.60;;
31746;SDS011;18319;48.974;8.462;2022-07-30T12:51:19;4.57;;;1.20;;
31746;SDS011;18319;48.974;8.462;2022-07-30T12:53:47;1.60;;;1.00;;
31746;SDS011;18319;48.974;8.462;2022-07-30T12:56:15;1.08;;;0.95;;
31746;SDS011;18319;48.974;8.462;2022-07-30T12:58:43;4.60;;;1.10;;
31746;SDS011;18319;48.974;8.462;2022-07-30T13:01:11;4.00;;;1.13;;
31746;SDS011;18319;48.974;8.462;2022-07-30T13:03:38;2.60;;;0.95;;
31746;SDS011;18319;48.974;8.462;2022-07-30T13:06:13;1.48;;;1.10;;
31746;SDS011;18319;48.974;8.462;2022-07-30T13:08:44;1.05;;;0.88;;
31746;SDS011;18319;48.974;8.462;2022-07-30T13:11:12;0.60;;;0.60;;
31746;SDS011;18319;48.974;8.462;2022-07-30T13:13:40;1.88;;;1.40;;
31746;SDS011;18319;48.974;8.462;2022-07-30T13:16:07;2.05;;;0.85;;
31746;SDS011;18319;48.974;8.462;2022-07-30T13:18:35;1.00;;;0.90;;
31746;SDS011;18319;48.974;8.462;2022-07-30T13:21:03;1.40;;;1.05;;
31746;SDS011;18319;48.974;8.462;2022-07-30T13:23:33;1.20;;;1.10;;
31746;SDS011;18319;48.974;8.462;2022-07-30T13:26:01;1.67;;;1.20;;
31746;SDS011;18319;48.974;8.462;2022-07-30T13:28:30;1.60;;;1.08;;
31746;SDS011;18319;48.974;8.462;2022-07-30T13:30:58;1.30;;;1.20;;
31746;SDS011;18319;48.974;8.462;2022-07-30T13:33:25;2.05;;;0.98;;
31746;SDS011;18319;48.974;8.462;2022-07-30T13:35:52;2.58;;;0.90;;
31746;SDS011;18319;48.974;8.462;2022-07-30T13:38:19;1.75;;;0.85;;
31746;SDS011;18319;48.974;8.462;2022-07-30T13:40:46;0.80;;;0.75;;
31746;SDS011;18319;48.974;8.462;2022-07-30T13:43:13;2.55;;;0.90;;
31746;SDS011;18319;48.974;8.462;2022-07-30T13:45:41;1.35;;;1.08;;
31746;SDS011;18319;48.974;8.462;2022-07-30T13:48:08;0.98;;;0.88;;
31746;SDS011;18319;48.974;8.462;2022-07-30T13:50:35;1.25;;;0.70;;
31746;SDS011;18319;48.974;8.462;2022-07-30T13:53:03;1.77;;;1.00;;
31746;SDS011;18319;48.974;8.462;2022-07-30T13:55:30;1.15;;;0.80;;
31746;SDS011;18319;48.974;8.462;2022-07-30T13:57:57;3.63;;;0.90;;
31746;SDS011;18319;48.974;8.462;2022-07-30T14:00:26;1.10;;;1.00;;
31746;SDS011;18319;48.974;8.462;2022-07-30T14:02:58;1.42;;;1.10;;
31746;SDS011;18319;48.974;8.462;2022-07-30T14:05:25;1.70;;;1.08;;
31746;SDS011;18319;48.974;8.462;2022-07-30T14:07:52;1.27;;;1.17;;
31746;SDS011;18319;48.974;8.462;2022-07-30T14:10:20;0.93;;;0.90;;
31746;SDS011;18319;48.974;8.462;2022-07-30T14:12:47;1.08;;;1.08;;
31746;SDS011;18319;48.974;8.462;2022-07-30T14:15:14;0.90;;;0.90;;
31746;SDS011;18319;48.974;8.462;2022-07-30T14:17:41;1.23;;;1.00;;
31746;SDS011;18319;48.974;8.462;2022-07-30T14:20:10;1.00;;;1.00;;
31746;SDS011;18319;48.974;8.462;2022-07-30T14:22:38;1.95;;;0.98;;
31746;SDS011;18319;48.974;8.462;2022-07-30T14:25:05;1.95;;;0.70;;
31746;SDS011;18319;48.974;8.462;2022-07-30T14:27:33;1.48;;;0.85;;
31746;SDS011;18319;48.974;8.462;2022-07-30T14:30:00;0.90;;;0.90;;
31746;SDS011;18319;48.974;8.462;2022-07-30T14:32:27;1.92;;;1.08;;
31746;SDS011;18319;48.974;8.462;2022-07-30T14:34:55;1.05;;;0.82;;
31746;SDS011;18319;48.974;8.462;2022-07-30T14:37:23;1.42;;;0.60;;
31746;SDS011;18319;48.974;8.462;2022-07-30T14:39:50;2.30;;;0.98;;
31746;SDS011;18319;48.974;8.462;2022-07-30T14:42:17;0.80;;;0.80;;
31746;SDS011;18319;48.974;8.462;2022-07-30T14:44:45;0.70;;;0.70;;
31746;SDS011;18319;48.974;8.462;2022-07-30T14:47:12;1.08;;;0.93;;
31746;SDS011;18319;48.974;8.462;2022-07-30T14:49:39;1.02;;;0.80;;
31746;SDS011;18319;48.974;8.462;2022-07-30T14:52:05;1.65;;;0.68;;
31746;SDS011;18319;48.974;8.462;2022-07-30T14:54:34;0.82;;;0.65;;
31746;SDS011;18319;48.974;8.462;2022-07-30T14:57:00;1.23;;;0.60;;
31746;SDS011;18319;48.974;8.462;2022-07-30T14:59:27;1.90;;;0.80;;
31746;SDS011;18319;48.974;8.462;2022-07-30T15:01:55;3.38;;;0.80;;
31746;SDS011;18319;48.974;8.462;2022-07-30T15:04:22;1.95;;;0.70;;
31746;SDS011;18319;48.974;8.462;2022-07-30T15:06:49;1.30;;;0.50;;
31746;SDS011;18319;48.974;8.462;2022-07-30T15:09:16;1.48;;;0.63;;